PHKO METAR and TAF weather

Enter ICAO airport designator
Station Type Date Time Source
PHKO METAR 2020/07/05 02:53 UTC NOAA

PHKO 050253Z 25007KT 10SM SCT045 BKN100 28/21 A2993 RMK AO2 SLP134 T02830211 56007


Station Type Date Time Source
PHKO Decoded METAR 2020/07/05 02:53 UTC NOAA

KONA INTERNATIONAL AIRPORT, HI, United States (PHKO) 19-44N 156-03W 27M
Jul 04, 2020 - 10:53 PM EDT / 2020.07.05 0253 UTC
Wind: from the WSW (250 degrees) at 8 MPH (7 KT):0
Visibility: 10 mile(s):0
Sky conditions: mostly cloudy
Temperature: 82.9 F (28.3 C)
Dew Point: 70.0 F (21.1 C)
Relative Humidity: 65%
Pressure (altimeter): 29.93 in. Hg (1013 hPa)
Pressure tendency: 0.02 inches (0.7 hPa) lower than three hours ago
ob: PHKO 050253Z 25007KT 10SM SCT045 BKN100 28/21 A2993 RMK AO2 SLP134 T02830211 56007
cycle: 3

Station Type Date Time Source
PHKO TAF 2020/07/04 18:39 UTC NOAA

TAF PHKO 041737Z 0418/0518 VRB06KT P6SM VCSH OVC050
FM042100 22010KT P6SM SCT060
FM050300 24008KT P6SM VCSH SCT015 OVC050
TEMPO 0503/0507 4SM SHRA BR BKN015 OVC035
FM050700 10007KT P6SM VCSH SCT025 BKN060

Example: see airport list